Terminal Aerodrome Forecast
Issued by NWS

Home | Current Version | Previous Version | Text Only | Print | Product List | Glossary On
Versions: 1 2 3 4 5 6 7 8 9 10 11 12 13 14 15 16 17 18 19 20 21 22 23 24 25 26 27 28
000
FTUS41 KBOX 301121
TAFBED
TAF
KBED 301121Z 3012/3112 VRB03KT P6SM FEW250
     FM301500 20007KT P6SM FEW045
     FM310300 20007KT P6SM BKN045
     FM310600 21006KT P6SM BKN020
     FM310700 21006KT 5SM -DZ BR BKN015
     FM310900 21007KT 3/4SM -DZ BR BKN010
     FM311000 21007KT 2SM -DZ BR BKN010=

USA.gov is the U.S. government's official web portal to all federal, state and local government web resources and services.